Time;durP1;ratioP1;P1;durP2;ratioP2;P2;SDS_P1;SDS_P2;PMS_P1;PMS_P2;Temp;Humidity;BMP_temperature;BMP_pressure;BME280_temperature;BME280_humidity;BME280_pressure;Samples;Min_cycle;Max_cycle;Signal;HPM_P1;HPM_P2
2022/06/28 00:01:44;;;;;;;6.03;4.03;;;;;;;;;;5022110;28;20037;-69
2022/06/28 00:04:11;;;;;;;5.90;3.85;;;;;;;;;;5021502;28;20397;-70
2022/06/28 00:06:37;;;;;;;9.13;3.83;;;;;;;;;;5022479;28;20478;-69
2022/06/28 00:09:03;;;;;;;4.53;3.58;;;;;;;;;;5022261;28;20155;-70
2022/06/28 00:11:28;;;;;;;6.13;3.83;;;;;;;;;;5021846;28;20033;-71
2022/06/28 00:13:54;;;;;;;3.83;3.50;;;;;;;;;;5018870;28;20497;-72
2022/06/28 00:16:20;;;;;;;4.63;3.53;;;;;;;;;;5019758;28;20406;-72
2022/06/28 00:18:45;;;;;;;4.60;3.25;;;;;;;;;;5021136;28;20044;-70
2022/06/28 00:21:12;;;;;;;6.07;3.88;;;;;;;;;;5021606;28;20882;-71
2022/06/28 00:23:39;;;;;;;5.90;4.07;;;;;;;;;;5022065;28;20063;-70
2022/06/28 00:26:06;;;;;;;3.83;3.50;;;;;;;;;;5021243;28;20037;-72
2022/06/28 00:28:32;;;;;;;4.00;3.35;;;;;;;;;;5022170;28;20124;-72
2022/06/28 00:30:58;;;;;;;4.55;3.70;;;;;;;;;;5020141;28;20128;-71
2022/06/28 00:33:29;;;;;;;4.00;3.30;;;;;;;;;;5020389;28;20064;-71
2022/06/28 00:35:55;;;;;;;4.68;3.33;;;;;;;;;;5019708;28;20041;-72
2022/06/28 00:38:20;;;;;;;6.30;3.40;;;;;;;;;;5020304;28;20041;-72
2022/06/28 00:40:50;;;;;;;4.93;3.33;;;;;;;;;;5020691;28;20090;-72
2022/06/28 00:43:17;;;;;;;4.68;3.83;;;;;;;;;;5003780;28;20631;-72
2022/06/28 00:45:44;;;;;;;3.90;3.47;;;;;;;;;;5003604;28;20041;-71
2022/06/28 00:48:12;;;;;;;4.47;3.17;;;;;;;;;;5020807;28;20119;-71
2022/06/28 00:50:38;;;;;;;3.92;3.50;;;;;;;;;;5020380;28;20033;-73
2022/06/28 00:53:06;;;;;;;4.13;3.72;;;;;;;;;;5021232;28;20056;-72
2022/06/28 00:55:32;;;;;;;4.63;4.10;;;;;;;;;;5020307;28;20042;-73
2022/06/28 00:57:58;;;;;;;5.18;4.15;;;;;;;;;;5002600;28;20402;-71
2022/06/28 01:00:24;;;;;;;6.28;4.35;;;;;;;;;;5019675;28;20037;-72
2022/06/28 01:02:50;;;;;;;6.05;3.83;;;;;;;;;;5019907;28;20037;-72
2022/06/28 01:05:16;;;;;;;5.55;4.30;;;;;;;;;;5020313;28;20044;-70
2022/06/28 01:07:42;;;;;;;6.50;3.95;;;;;;;;;;5020191;28;20583;-73
2022/06/28 01:10:10;;;;;;;4.68;4.00;;;;;;;;;;5018828;28;20052;-73
2022/06/28 01:12:37;;;;;;;5.05;3.72;;;;;;;;;;5017343;28;20059;-72
2022/06/28 01:15:02;;;;;;;5.35;3.95;;;;;;;;;;5021470;28;20513;-68
2022/06/28 01:18:02;;;;;;;4.80;4.13;;;;;;;;;;5016669;28;20035;-70
2022/06/28 01:20:39;;;;;;;5.35;4.03;;;;;;;;;;5028490;28;20080;-70
2022/06/28 01:23:16;;;;;;;9.23;4.10;;;;;;;;;;5019583;28;20025;-70
2022/06/28 01:25:44;;;;;;;6.28;4.03;;;;;;;;;;5020152;28;20041;-71
2022/06/28 01:28:11;;;;;;;5.10;4.20;;;;;;;;;;5019369;28;21043;-70
2022/06/28 01:30:36;;;;;;;4.97;3.85;;;;;;;;;;5003554;28;20167;-70
2022/06/28 01:33:08;;;;;;;6.32;4.22;;;;;;;;;;5018651;28;20087;-69
2022/06/28 01:35:33;;;;;;;4.15;3.65;;;;;;;;;;5019694;28;20390;-70
2022/06/28 01:38:00;;;;;;;4.88;3.65;;;;;;;;;;5019724;28;20037;-71
2022/06/28 01:40:26;;;;;;;4.30;3.80;;;;;;;;;;5019658;28;20033;-70
2022/06/28 01:42:52;;;;;;;4.05;3.75;;;;;;;;;;5012645;28;20037;-70
2022/06/28 01:45:18;;;;;;;6.18;4.13;;;;;;;;;;5019634;28;20037;-70
2022/06/28 01:47:47;;;;;;;4.78;4.20;;;;;;;;;;5019455;28;20045;-70
2022/06/28 01:50:24;;;;;;;7.65;4.32;;;;;;;;;;5021135;28;20137;-69
2022/06/28 01:52:50;;;;;;;6.13;4.45;;;;;;;;;;5018602;28;20151;-70
2022/06/28 01:55:36;;;;;;;7.30;4.00;;;;;;;;;;5012982;28;20064;-70
2022/06/28 01:58:06;;;;;;;6.75;3.97;;;;;;;;;;5019754;28;20037;-70
2022/06/28 02:00:39;;;;;;;5.43;3.88;;;;;;;;;;5019846;28;20585;-71
2022/06/28 02:03:06;;;;;;;9.38;4.28;;;;;;;;;;5018661;28;20036;-70
2022/06/28 02:06:01;;;;;;;4.60;3.63;;;;;;;;;;5014940;28;20045;-71
2022/06/28 02:08:28;;;;;;;4.70;4.20;;;;;;;;;;5019305;28;20513;-70
2022/06/28 02:10:58;;;;;;;4.03;3.33;;;;;;;;;;5019362;28;20033;-71
2022/06/28 02:13:26;;;;;;;10.90;4.30;;;;;;;;;;5016233;28;20059;-70
2022/06/28 02:15:52;;;;;;;4.10;3.58;;;;;;;;;;5018030;28;20183;-71
2022/06/28 02:18:17;;;;;;;3.95;3.47;;;;;;;;;;5019221;28;20033;-71
2022/06/28 02:20:44;;;;;;;6.60;3.80;;;;;;;;;;5019228;28;20040;-70
2022/06/28 02:23:10;;;;;;;6.47;4.05;;;;;;;;;;5018508;28;20795;-70
2022/06/28 02:25:36;;;;;;;5.30;4.03;;;;;;;;;;5018825;28;20517;-71
2022/06/28 02:28:01;;;;;;;5.13;4.00;;;;;;;;;;5019159;28;20034;-69
2022/06/28 02:30:27;;;;;;;8.35;4.00;;;;;;;;;;5018660;28;20116;-70
2022/06/28 02:32:52;;;;;;;5.22;4.00;;;;;;;;;;5019066;28;20061;-68
2022/06/28 02:40:46;;;;;;;10.20;4.63;;;;;;;;;;5024669;28;20035;-70
2022/06/28 02:43:11;;;;;;;6.95;4.10;;;;;;;;;;5024020;28;20041;-70
2022/06/28 02:45:37;;;;;;;12.40;4.10;;;;;;;;;;5022750;28;20033;-69
2022/06/28 02:48:04;;;;;;;6.25;4.13;;;;;;;;;;5014108;28;20034;-70
2022/06/28 02:50:30;;;;;;;10.68;4.10;;;;;;;;;;5022736;28;20080;-70
2022/06/28 02:52:56;;;;;;;21.55;4.93;;;;;;;;;;5022715;28;20059;-69
2022/06/28 02:55:22;;;;;;;10.23;4.53;;;;;;;;;;5023139;28;20123;-71
2022/06/28 02:57:47;;;;;;;5.55;4.28;;;;;;;;;;5024678;28;20061;-69
2022/06/28 03:00:16;;;;;;;7.90;4.35;;;;;;;;;;5021422;28;20497;-71
2022/06/28 03:02:44;;;;;;;13.20;4.85;;;;;;;;;;5022095;28;20045;-71
2022/06/28 03:05:13;;;;;;;5.90;4.75;;;;;;;;;;5022661;28;20038;-68
2022/06/28 03:07:40;;;;;;;5.13;4.57;;;;;;;;;;5023175;28;20588;-70
2022/06/28 03:10:07;;;;;;;8.88;4.53;;;;;;;;;;5021798;28;20145;-70
2022/06/28 03:12:32;;;;;;;7.60;4.22;;;;;;;;;;5022904;28;20037;-69
2022/06/28 03:14:58;;;;;;;8.10;4.85;;;;;;;;;;5022404;28;20562;-70
2022/06/28 03:17:24;;;;;;;6.20;4.50;;;;;;;;;;5022641;28;20884;-69
2022/06/28 03:19:49;;;;;;;10.30;5.07;;;;;;;;;;5022567;28;20125;-68
2022/06/28 03:22:15;;;;;;;5.65;4.85;;;;;;;;;;5020208;28;20040;-70
2022/06/28 03:24:41;;;;;;;5.45;4.72;;;;;;;;;;5022627;28;20033;-70
2022/06/28 03:27:06;;;;;;;8.50;4.55;;;;;;;;;;5023868;28;20478;-69
2022/06/28 03:29:33;;;;;;;5.72;5.13;;;;;;;;;;5021840;28;20037;-68
2022/06/28 03:32:01;;;;;;;7.38;4.80;;;;;;;;;;5005227;28;20037;-70
2022/06/28 03:34:27;;;;;;;10.00;4.88;;;;;;;;;;5021965;28;20367;-70
2022/06/28 03:36:53;;;;;;;9.77;5.20;;;;;;;;;;5021902;28;20132;-71
2022/06/28 03:39:47;;;;;;;8.30;5.57;;;;;;;;;;5016504;28;20045;-71
2022/06/28 03:42:13;;;;;;;7.10;5.15;;;;;;;;;;5021217;28;20033;-70
2022/06/28 03:44:41;;;;;;;7.22;5.40;;;;;;;;;;5022293;28;20037;-70
2022/06/28 03:47:07;;;;;;;10.25;5.60;;;;;;;;;;5021821;28;20044;-68
2022/06/28 03:49:38;;;;;;;14.18;5.95;;;;;;;;;;5023247;28;20053;-71
2022/06/28 03:52:30;;;;;;;8.10;5.70;;;;;;;;;;5010860;28;20068;-70
2022/06/28 03:55:14;;;;;;;8.82;5.60;;;;;;;;;;5019130;28;20087;-70
2022/06/28 03:57:42;;;;;;;6.75;5.20;;;;;;;;;;5021349;28;20037;-71
2022/06/28 04:00:10;;;;;;;5.90;5.30;;;;;;;;;;5021301;28;20109;-69
2022/06/28 04:02:40;;;;;;;7.50;5.38;;;;;;;;;;5023316;28;20040;-70
2022/06/28 04:05:10;;;;;;;7.65;5.10;;;;;;;;;;5022520;28;20049;-69
2022/06/28 04:07:36;;;;;;;7.50;5.40;;;;;;;;;;5023766;28;20091;-69
2022/06/28 04:10:02;;;;;;;6.63;4.97;;;;;;;;;;5023975;28;20525;-68
2022/06/28 04:12:32;;;;;;;6.47;5.18;;;;;;;;;;5014648;28;20538;-70
2022/06/28 04:15:10;;;;;;;8.75;4.82;;;;;;;;;;5023698;28;20045;-70
2022/06/28 04:17:36;;;;;;;5.35;4.45;;;;;;;;;;5024130;28;20437;-69
2022/06/28 04:20:35;;;;;;;7.78;4.22;;;;;;;;;;5009273;28;20041;-71
2022/06/28 04:23:03;;;;;;;8.25;4.32;;;;;;;;;;5023475;28;20037;-70
2022/06/28 04:25:30;;;;;;;5.15;4.55;;;;;;;;;;5023570;28;20128;-70
2022/06/28 04:28:03;;;;;;;6.18;4.85;;;;;;;;;;5022348;28;20041;-73
2022/06/28 04:30:31;;;;;;;8.88;4.80;;;;;;;;;;5023582;28;20379;-70
2022/06/28 04:32:59;;;;;;;8.23;5.13;;;;;;;;;;5023891;28;20056;-71
2022/06/28 04:35:29;;;;;;;9.20;4.50;;;;;;;;;;5022895;28;20469;-70
2022/06/28 04:37:55;;;;;;;9.63;4.70;;;;;;;;;;5022782;28;20098;-70
2022/06/28 04:40:37;;;;;;;5.50;3.83;;;;;;;;;;5021496;28;20037;-70
2022/06/28 04:43:18;;;;;;;7.03;4.75;;;;;;;;;;5021014;28;20406;-70
2022/06/28 04:45:43;;;;;;;6.47;4.13;;;;;;;;;;5001865;28;20037;-70
2022/06/28 04:48:11;;;;;;;7.68;4.13;;;;;;;;;;5018471;28;20033;-70
2022/06/28 04:50:37;;;;;;;5.72;3.88;;;;;;;;;;5019576;28;20056;-70
2022/06/28 04:53:03;;;;;;;5.60;4.05;;;;;;;;;;5003398;28;20091;-70
2022/06/28 04:55:30;;;;;;;6.38;4.18;;;;;;;;;;5019903;28;20211;-70
2022/06/28 04:57:59;;;;;;;8.27;4.10;;;;;;;;;;5015579;28;20056;-70
2022/06/28 05:00:25;;;;;;;4.90;3.95;;;;;;;;;;5025969;28;20026;-70
2022/06/28 05:02:58;;;;;;;5.35;3.90;;;;;;;;;;5024794;28;20894;-71
2022/06/28 05:05:42;;;;;;;6.28;3.63;;;;;;;;;;5026550;28;20087;-71
2022/06/28 05:08:08;;;;;;;4.63;3.50;;;;;;;;;;5024857;28;20409;-70
2022/06/28 05:10:49;;;;;;;7.55;4.10;;;;;;;;;;5023774;28;20491;-70
2022/06/28 05:13:41;;;;;;;4.70;3.47;;;;;;;;;;5018949;28;20045;-70
2022/06/28 05:16:10;;;;;;;4.75;3.53;;;;;;;;;;5003500;28;20111;-69
2022/06/28 05:18:35;;;;;;;4.90;3.63;;;;;;;;;;5019279;28;20530;-70
2022/06/28 05:21:03;;;;;;;5.22;4.10;;;;;;;;;;5015918;28;20036;-70
2022/06/28 05:23:30;;;;;;;4.93;3.85;;;;;;;;;;5016255;28;20029;-70
2022/06/28 05:26:14;;;;;;;7.38;4.30;;;;;;;;;;5017833;28;20068;-70
2022/06/28 05:28:43;;;;;;;7.45;4.53;;;;;;;;;;5017764;28;20041;-68
2022/06/28 05:31:08;;;;;;;4.65;4.10;;;;;;;;;;5016930;28;20096;-69
2022/06/28 05:33:34;;;;;;;5.30;3.38;;;;;;;;;;5015668;28;20037;-69
2022/06/28 05:36:01;;;;;;;4.50;3.60;;;;;;;;;;5000670;28;20041;-69
2022/06/28 05:38:27;;;;;;;4.95;3.40;;;;;;;;;;5019092;28;20483;-69
2022/06/28 05:40:52;;;;;;;5.38;3.08;;;;;;;;;;5017882;28;20033;-68
2022/06/28 05:43:17;;;;;;;4.28;3.17;;;;;;;;;;5017742;28;20068;-69
2022/06/28 05:45:43;;;;;;;6.20;3.20;;;;;;;;;;5019160;28;20063;-69
2022/06/28 05:48:08;;;;;;;4.47;2.92;;;;;;;;;;5019578;28;20045;-69
2022/06/28 05:50:34;;;;;;;3.85;3.15;;;;;;;;;;5020349;28;20072;-69
2022/06/28 05:52:59;;;;;;;4.13;3.22;;;;;;;;;;5018723;28;20499;-69
2022/06/28 05:55:25;;;;;;;2.83;2.63;;;;;;;;;;5018271;28;20091;-68
2022/06/28 05:57:51;;;;;;;4.20;2.80;;;;;;;;;;5019049;28;20029;-69
2022/06/28 06:00:17;;;;;;;4.65;2.88;;;;;;;;;;5018957;28;20395;-68
2022/06/28 06:02:43;;;;;;;3.88;2.78;;;;;;;;;;5020127;28;20044;-70
2022/06/28 06:05:09;;;;;;;5.97;2.50;;;;;;;;;;5017352;28;20121;-72
2022/06/28 06:07:35;;;;;;;4.45;2.28;;;;;;;;;;5018381;28;20896;-71
2022/06/28 06:10:02;;;;;;;5.90;2.50;;;;;;;;;;5018477;28;20030;-72
2022/06/28 06:12:28;;;;;;;2.28;1.83;;;;;;;;;;5018340;28;20033;-72
2022/06/28 06:14:54;;;;;;;2.83;2.25;;;;;;;;;;5023242;28;20482;-71
2022/06/28 06:17:19;;;;;;;2.75;1.88;;;;;;;;;;5021834;28;20037;-71
2022/06/28 06:19:45;;;;;;;3.85;1.92;;;;;;;;;;5022421;28;20112;-71
2022/06/28 06:22:12;;;;;;;2.78;2.20;;;;;;;;;;5023198;28;20074;-68
2022/06/28 06:24:38;;;;;;;4.50;2.50;;;;;;;;;;5024188;28;20167;-68
2022/06/28 06:27:14;;;;;;;3.03;2.67;;;;;;;;;;5023054;28;20112;-68
2022/06/28 06:29:41;;;;;;;3.20;2.67;;;;;;;;;;5005678;28;20075;-68
2022/06/28 06:32:11;;;;;;;;;;;;;;;;;;5022013;28;20061;-69
2022/06/28 06:34:56;;;;;;;3.40;2.65;;;;;;;;;;5024582;28;20591;-68
2022/06/28 06:37:22;;;;;;;3.72;2.60;;;;;;;;;;5022577;28;20515;-69
2022/06/28 06:39:48;;;;;;;2.97;2.60;;;;;;;;;;5021071;28;20025;-68
2022/06/28 06:42:13;;;;;;;4.88;2.70;;;;;;;;;;5022353;28;20041;-69
2022/06/28 06:44:45;;;;;;;4.57;2.67;;;;;;;;;;5023098;28;20037;-69
2022/06/28 06:47:10;;;;;;;4.47;2.50;;;;;;;;;;5021888;28;20082;-68
2022/06/28 06:49:36;;;;;;;3.60;3.08;;;;;;;;;;5023169;28;20087;-69
2022/06/28 06:52:02;;;;;;;6.70;2.83;;;;;;;;;;5022807;28;20414;-69
2022/06/28 06:54:28;;;;;;;4.57;3.00;;;;;;;;;;5022175;28;20056;-69
2022/06/28 06:56:53;;;;;;;4.20;3.00;;;;;;;;;;5023431;28;20131;-69
2022/06/28 06:59:19;;;;;;;4.45;2.30;;;;;;;;;;5023033;28;20044;-69
2022/06/28 07:01:45;;;;;;;3.88;2.63;;;;;;;;;;5022497;28;20044;-69
2022/06/28 07:04:15;;;;;;;4.15;2.63;;;;;;;;;;5021985;28;20044;-68
2022/06/28 07:06:42;;;;;;;6.75;2.60;;;;;;;;;;5022070;28;20041;-69
2022/06/28 07:09:07;;;;;;;9.30;2.60;;;;;;;;;;5022439;28;20048;-70
2022/06/28 07:14:14;;;;;;;2.80;2.08;;;;;;;;;;5152436;23;20074;-72
2022/06/28 07:16:39;;;;;;;3.20;2.60;;;;;;;;;;4983051;28;20078;-71
2022/06/28 07:19:05;;;;;;;2.55;2.35;;;;;;;;;;4982124;28;20030;-71
2022/06/28 07:21:31;;;;;;;4.50;2.40;;;;;;;;;;4983670;28;20034;-69
2022/06/28 07:23:56;;;;;;;3.83;2.15;;;;;;;;;;4979476;28;20104;-70
2022/06/28 07:26:22;;;;;;;5.15;2.08;;;;;;;;;;4980646;28;20050;-70
2022/06/28 07:28:47;;;;;;;2.83;2.15;;;;;;;;;;4981014;28;20069;-69
2022/06/28 07:31:15;;;;;;;2.92;2.30;;;;;;;;;;4980649;28;20034;-69
2022/06/28 07:33:40;;;;;;;2.65;2.42;;;;;;;;;;4981728;28;20107;-70
2022/06/28 07:36:07;;;;;;;5.93;2.38;;;;;;;;;;4981426;28;20038;-70
2022/06/28 07:38:33;;;;;;;3.03;2.75;;;;;;;;;;4982369;28;20406;-69
2022/06/28 07:41:27;;;;;;;3.17;2.50;;;;;;;;;;4947172;28;20035;-70
2022/06/28 07:44:31;;;;;;;2.40;2.20;;;;;;;;;;4922129;29;20052;-70
2022/06/28 07:46:57;;;;;;;3.22;2.28;;;;;;;;;;4920439;29;20044;-69
2022/06/28 07:52:33;;;;;;;6.28;2.75;;;;;;;;;;4949677;28;20049;-68
2022/06/28 07:54:53;;;;;;;2.90;2.30;;;;;;;;;;4978403;28;20041;-70
2022/06/28 07:57:35;;;;;;;2.50;2.30;;;;;;;;;;4982169;28;20727;-69
2022/06/28 08:00:01;;;;;;;3.03;2.10;;;;;;;;;;4981991;28;20092;-70
2022/06/28 08:02:28;;;;;;;3.92;2.13;;;;;;;;;;4965546;28;20038;-71
2022/06/28 08:04:54;;;;;;;2.47;2.28;;;;;;;;;;4982192;28;20108;-69
2022/06/28 08:07:19;;;;;;;2.42;2.22;;;;;;;;;;4980747;28;20621;-68
2022/06/28 08:09:45;;;;;;;2.70;2.22;;;;;;;;;;4981878;28;20060;-68
2022/06/28 08:12:11;;;;;;;4.60;2.20;;;;;;;;;;4981635;28;20487;-69
2022/06/28 08:14:37;;;;;;;2.78;2.30;;;;;;;;;;4981757;28;20503;-70
2022/06/28 08:17:04;;;;;;;1.88;1.73;;;;;;;;;;4981503;28;20080;-68
2022/06/28 08:19:30;;;;;;;3.80;2.42;;;;;;;;;;4981127;28;20027;-68
2022/06/28 08:21:56;;;;;;;3.65;2.40;;;;;;;;;;4981519;28;20049;-70
2022/06/28 08:24:22;;;;;;;3.65;2.20;;;;;;;;;;4981559;28;20100;-69
2022/06/28 08:26:47;;;;;;;2.42;2.22;;;;;;;;;;4981460;28;20034;-71
2022/06/28 08:29:14;;;;;;;2.38;2.20;;;;;;;;;;4980407;28;20419;-73
2022/06/28 08:31:40;;;;;;;3.15;2.13;;;;;;;;;;4982814;28;20034;-69
2022/06/28 08:34:09;;;;;;;4.13;2.00;;;;;;;;;;4981524;28;20073;-71
2022/06/28 08:36:35;;;;;;;2.42;2.08;;;;;;;;;;4981620;28;20038;-72
2022/06/28 08:39:03;;;;;;;3.42;2.10;;;;;;;;;;4981589;28;20046;-68
2022/06/28 08:41:31;;;;;;;8.23;2.03;;;;;;;;;;4980632;28;20145;-70
2022/06/28 08:43:56;;;;;;;2.15;2.00;;;;;;;;;;4982206;28;20034;-70
2022/06/28 08:46:22;;;;;;;2.35;2.08;;;;;;;;;;4982328;28;20108;-67
2022/06/28 08:48:53;;;;;;;3.97;1.88;;;;;;;;;;4982606;28;20038;-71
2022/06/28 08:51:19;;;;;;;2.10;1.75;;;;;;;;;;4980922;28;20038;-70
2022/06/28 08:53:47;;;;;;;2.28;2.05;;;;;;;;;;4981946;28;20077;-72
2022/06/28 08:56:13;;;;;;;1.92;1.83;;;;;;;;;;4982209;28;20041;-69
2022/06/28 08:58:44;;;;;;;3.92;1.75;;;;;;;;;;4982253;28;20039;-71
2022/06/28 09:01:11;;;;;;;6.10;2.10;;;;;;;;;;4964245;28;20073;-71
2022/06/28 09:03:37;;;;;;;2.00;1.80;;;;;;;;;;4981495;28;20065;-70
2022/06/28 09:06:03;;;;;;;3.25;2.03;;;;;;;;;;4982362;28;20046;-70
2022/06/28 09:08:29;;;;;;;4.03;2.00;;;;;;;;;;4982206;28;20044;-70
2022/06/28 09:10:54;;;;;;;1.98;1.67;;;;;;;;;;4982035;28;20038;-69
2022/06/28 09:13:21;;;;;;;5.30;2.00;;;;;;;;;;4979805;28;20073;-69
2022/06/28 09:15:52;;;;;;;2.15;1.83;;;;;;;;;;4981937;28;20577;-70
2022/06/28 09:18:19;;;;;;;5.50;1.90;;;;;;;;;;4981937;28;20034;-69
2022/06/28 09:20:46;;;;;;;2.08;1.95;;;;;;;;;;4982273;28;20425;-70
2022/06/28 09:23:24;;;;;;;3.25;2.05;;;;;;;;;;4980597;28;20066;-70
2022/06/28 09:25:49;;;;;;;2.70;2.50;;;;;;;;;;4981905;28;20491;-71
2022/06/28 09:28:28;;;;;;;3.38;2.60;;;;;;;;;;4981877;28;20081;-70
2022/06/28 09:31:15;;;;;;;2.83;2.60;;;;;;;;;;4981402;28;20038;-70
2022/06/28 09:34:05;;;;;;;3.13;2.25;;;;;;;;;;4981695;28;20072;-69
2022/06/28 09:36:54;;;;;;;6.75;2.63;;;;;;;;;;4980523;28;20046;-69
2022/06/28 09:39:21;;;;;;;4.25;2.65;;;;;;;;;;4980466;28;20044;-69
2022/06/28 09:41:52;;;;;;;2.63;2.42;;;;;;;;;;4980045;28;20042;-72
2022/06/28 09:44:24;;;;;;;3.50;2.53;;;;;;;;;;4979985;28;20056;-70
2022/06/28 09:46:51;;;;;;;;;;;;;;;;;;4979112;28;20103;-70
2022/06/28 09:49:16;;;;;;;3.97;2.38;;;;;;;;;;4984168;28;19965;-70
2022/06/28 09:51:43;;;;;;;2.70;2.30;;;;;;;;;;4974719;28;20537;-69
2022/06/28 09:54:09;;;;;;;3.30;2.33;;;;;;;;;;4981590;28;20026;-69
2022/06/28 09:56:41;;;;;;;5.68;2.30;;;;;;;;;;4985051;28;20058;-69
2022/06/28 09:59:07;;;;;;;2.25;1.95;;;;;;;;;;4983235;28;20065;-69
2022/06/28 10:01:33;;;;;;;6.53;2.78;;;;;;;;;;4983274;28;20037;-71
2022/06/28 10:03:59;;;;;;;3.58;2.50;;;;;;;;;;4984103;28;20038;-69
2022/06/28 10:06:25;;;;;;;4.07;2.50;;;;;;;;;;4981145;28;20046;-71
2022/06/28 10:08:51;;;;;;;3.72;2.28;;;;;;;;;;4982321;28;20149;-70
2022/06/28 10:11:18;;;;;;;3.25;2.10;;;;;;;;;;4979874;28;20034;-69
2022/06/28 10:16:45;;;;;;;1.92;1.83;;;;;;;;;;4981365;28;20593;-70
2022/06/28 10:19:11;;;;;;;;;;;;;;;;;;4983201;28;20038;-70
2022/06/28 10:21:43;;;;;;;2.63;2.42;;;;;;;;;;4985463;28;20333;-70
2022/06/28 10:24:08;;;;;;;3.75;2.10;;;;;;;;;;4984930;28;20045;-69
2022/06/28 10:26:34;;;;;;;2.10;2.00;;;;;;;;;;4967709;28;20038;-73
2022/06/28 10:29:02;;;;;;;3.33;2.05;;;;;;;;;;4996086;28;20052;-71
2022/06/28 10:31:30;;;;;;;2.33;2.13;;;;;;;;;;4983682;28;20113;-70
2022/06/28 10:33:58;;;;;;;3.20;2.15;;;;;;;;;;4984293;28;20049;-72
2022/06/28 10:36:26;;;;;;;4.45;2.42;;;;;;;;;;4984610;28;20046;-69
2022/06/28 10:39:01;;;;;;;7.55;2.40;;;;;;;;;;4985159;28;21006;-68
2022/06/28 10:41:40;;;;;;;2.08;1.92;;;;;;;;;;4966410;28;20034;-69
2022/06/28 10:44:18;;;;;;;2.65;2.03;;;;;;;;;;4982527;28;20044;-69
2022/06/28 10:46:52;;;;;;;5.75;1.77;;;;;;;;;;4984435;28;20423;-68
2022/06/28 10:49:18;;;;;;;1.90;1.70;;;;;;;;;;4984516;28;20042;-69
2022/06/28 10:52:21;;;;;;;2.15;1.83;;;;;;;;;;4966138;28;20114;-69
2022/06/28 10:54:52;;;;;;;2.72;1.70;;;;;;;;;;4984631;28;20486;-70
2022/06/28 10:57:28;;;;;;;3.00;1.90;;;;;;;;;;4984076;28;20093;-69
2022/06/28 10:59:56;;;;;;;2.00;1.90;;;;;;;;;;4983640;28;20034;-70
2022/06/28 11:02:23;;;;;;;4.35;1.83;;;;;;;;;;4982822;28;20034;-69
2022/06/28 11:05:09;;;;;;;6.78;2.40;;;;;;;;;;4984110;28;20045;-70
2022/06/28 11:07:35;;;;;;;1.88;1.70;;;;;;;;;;4984486;28;20409;-70
2022/06/28 11:10:00;;;;;;;4.07;2.13;;;;;;;;;;4980985;28;20062;-70
2022/06/28 11:12:29;;;;;;;2.00;1.90;;;;;;;;;;4982051;28;20038;-70
2022/06/28 11:14:59;;;;;;;2.03;1.88;;;;;;;;;;4983096;28;20122;-70
2022/06/28 11:17:24;;;;;;;2.60;2.22;;;;;;;;;;4981707;28;20054;-70
2022/06/28 11:19:56;;;;;;;2.03;1.83;;;;;;;;;;4981747;28;20045;-69
2022/06/28 11:22:22;;;;;;;2.65;2.00;;;;;;;;;;4983163;28;20077;-69
2022/06/28 11:24:49;;;;;;;8.35;2.17;;;;;;;;;;4979475;28;20096;-69
2022/06/28 11:27:25;;;;;;;4.53;2.00;;;;;;;;;;4981197;28;20018;-70
2022/06/28 11:30:02;;;;;;;1.90;1.80;;;;;;;;;;4981381;28;20038;-70
2022/06/28 11:32:30;;;;;;;3.25;2.20;;;;;;;;;;4983184;28;20097;-70
2022/06/28 11:35:17;;;;;;;2.20;2.10;;;;;;;;;;4980380;28;20045;-70
2022/06/28 11:38:04;;;;;;;2.65;2.10;;;;;;;;;;4979700;28;20061;-70
2022/06/28 11:40:50;;;;;;;3.70;1.88;;;;;;;;;;4978786;28;20054;-69
2022/06/28 11:43:25;;;;;;;2.55;2.00;;;;;;;;;;4979434;28;20426;-69
2022/06/28 11:45:52;;;;;;;2.28;1.90;;;;;;;;;;4980044;28;20477;-69
2022/06/28 11:48:20;;;;;;;3.00;1.95;;;;;;;;;;4979475;28;20096;-69
2022/06/28 11:50:46;;;;;;;2.47;1.90;;;;;;;;;;4979818;28;20100;-69
2022/06/28 11:53:13;;;;;;;3.35;2.03;;;;;;;;;;4979892;28;20054;-70
2022/06/28 11:55:50;;;;;;;4.13;1.73;;;;;;;;;;4981392;28;20064;-70
2022/06/28 11:58:25;;;;;;;5.63;2.00;;;;;;;;;;4982465;28;21298;-69
2022/06/28 12:01:15;;;;;;;3.53;2.13;;;;;;;;;;4964852;28;20116;-69
2022/06/28 12:03:43;;;;;;;2.33;1.92;;;;;;;;;;4979620;28;20073;-70
2022/06/28 12:06:18;;;;;;;4.05;1.83;;;;;;;;;;4979340;28;20037;-70
2022/06/28 12:08:58;;;;;;;2.00;1.80;;;;;;;;;;4981441;28;20034;-69
2022/06/28 12:11:34;;;;;;;3.17;2.28;;;;;;;;;;4982665;28;20491;-69
2022/06/28 12:14:02;;;;;;;2.90;1.83;;;;;;;;;;4965085;28;20077;-69
2022/06/28 12:16:43;;;;;;;3.13;1.85;;;;;;;;;;4979736;28;20034;-69
2022/06/28 12:19:16;;;;;;;5.07;2.00;;;;;;;;;;4979021;28;20045;-70
2022/06/28 12:22:02;;;;;;;4.13;2.05;;;;;;;;;;4979459;28;20121;-69
2022/06/28 12:24:40;;;;;;;2.75;2.00;;;;;;;;;;4977460;28;20475;-70
2022/06/28 12:27:06;;;;;;;1.83;1.73;;;;;;;;;;4979386;28;20129;-70
2022/06/28 12:29:32;;;;;;;2.58;1.40;;;;;;;;;;4979737;28;20042;-69
2022/06/28 12:31:58;;;;;;;3.28;1.77;;;;;;;;;;4981771;28;20395;-70
2022/06/28 12:34:23;;;;;;;5.07;1.80;;;;;;;;;;4978145;28;20521;-69
2022/06/28 12:36:48;;;;;;;1.85;1.67;;;;;;;;;;4978025;28;20038;-69
2022/06/28 12:39:14;;;;;;;2.00;1.90;;;;;;;;;;4978880;28;20398;-69
2022/06/28 12:41:39;;;;;;;2.38;1.90;;;;;;;;;;4978395;28;20028;-69
2022/06/28 12:44:05;;;;;;;2.60;1.90;;;;;;;;;;4980083;28;20931;-70
2022/06/28 12:46:30;;;;;;;1.90;1.80;;;;;;;;;;4982624;28;20046;-69
2022/06/28 12:48:56;;;;;;;3.80;1.95;;;;;;;;;;4981068;28;20064;-69
2022/06/28 12:51:21;;;;;;;3.17;1.70;;;;;;;;;;4981797;28;20030;-72
2022/06/28 12:53:47;;;;;;;1.75;1.60;;;;;;;;;;4980734;28;20068;-72
2022/06/28 12:56:15;;;;;;;2.58;1.75;;;;;;;;;;4980799;28;20057;-68
2022/06/28 12:58:42;;;;;;;5.57;1.80;;;;;;;;;;4981828;28;20483;-71
2022/06/28 13:01:07;;;;;;;1.90;1.80;;;;;;;;;;4964598;28;20038;-70
2022/06/28 13:03:33;;;;;;;2.33;1.83;;;;;;;;;;4976384;28;20038;-70
2022/06/28 13:05:58;;;;;;;1.92;1.80;;;;;;;;;;4977713;28;20034;-70
2022/06/28 13:08:23;;;;;;;1.67;1.58;;;;;;;;;;4977210;28;20030;-70
2022/06/28 13:10:49;;;;;;;2.67;1.90;;;;;;;;;;4978580;28;20038;-70
2022/06/28 13:13:19;;;;;;;1.80;1.70;;;;;;;;;;4975953;28;20060;-69
2022/06/28 13:15:45;;;;;;;5.47;1.88;;;;;;;;;;4976145;28;20490;-69
2022/06/28 13:18:10;;;;;;;2.15;1.95;;;;;;;;;;4977945;28;20045;-71
2022/06/28 13:20:36;;;;;;;2.80;1.98;;;;;;;;;;4977734;28;20030;-69
2022/06/28 13:23:01;;;;;;;1.85;1.75;;;;;;;;;;4976886;28;20042;-69
2022/06/28 13:25:26;;;;;;;2.60;1.70;;;;;;;;;;4974235;28;20121;-68
2022/06/28 13:27:52;;;;;;;2.05;1.95;;;;;;;;;;4979175;28;20121;-69
2022/06/28 13:30:18;;;;;;;1.85;1.75;;;;;;;;;;4981826;28;20038;-69
2022/06/28 13:32:43;;;;;;;2.05;1.80;;;;;;;;;;4980001;28;20042;-69
2022/06/28 13:35:08;;;;;;;4.90;1.90;;;;;;;;;;4978149;28;20049;-69
2022/06/28 13:37:34;;;;;;;4.28;2.05;;;;;;;;;;4978442;28;20045;-69
2022/06/28 13:40:00;;;;;;;2.28;1.70;;;;;;;;;;4978036;28;20023;-69
2022/06/28 13:42:25;;;;;;;2.20;2.00;;;;;;;;;;4977681;28;20398;-69
2022/06/28 13:44:52;;;;;;;3.53;2.38;;;;;;;;;;4980722;28;20041;-69
2022/06/28 13:47:18;;;;;;;2.38;2.17;;;;;;;;;;4980577;28;20414;-69
2022/06/28 13:49:43;;;;;;;2.58;2.38;;;;;;;;;;4980216;28;20510;-69
2022/06/28 13:52:09;;;;;;;6.97;1.90;;;;;;;;;;4980702;28;20042;-70
2022/06/28 13:54:35;;;;;;;2.88;2.20;;;;;;;;;;4980299;28;20038;-71
2022/06/28 13:57:01;;;;;;;2.42;2.22;;;;;;;;;;4981484;28;20038;-69
2022/06/28 13:59:26;;;;;;;2.20;2.00;;;;;;;;;;4980738;28;20037;-69
2022/06/28 14:01:52;;;;;;;3.97;2.15;;;;;;;;;;4978745;28;20034;-69
2022/06/28 14:04:17;;;;;;;2.78;2.20;;;;;;;;;;4980723;28;20042;-69
2022/06/28 14:06:43;;;;;;;2.20;2.00;;;;;;;;;;4981008;28;20090;-69
2022/06/28 14:09:09;;;;;;;5.45;2.30;;;;;;;;;;4979189;28;20125;-69
2022/06/28 14:11:34;;;;;;;5.55;2.60;;;;;;;;;;4979784;28;20133;-68
2022/06/28 14:14:00;;;;;;;2.55;2.35;;;;;;;;;;4981630;28;20046;-69
2022/06/28 14:16:26;;;;;;;3.97;2.40;;;;;;;;;;4982453;28;20038;-72
2022/06/28 14:18:51;;;;;;;3.08;2.50;;;;;;;;;;4951505;28;20046;-68
2022/06/28 14:21:17;;;;;;;3.60;2.50;;;;;;;;;;4978791;28;20054;-69
2022/06/28 14:23:43;;;;;;;2.95;2.35;;;;;;;;;;4980743;28;20117;-68
2022/06/28 14:26:09;;;;;;;2.72;2.53;;;;;;;;;;4981347;28;20038;-68
2022/06/28 14:28:34;;;;;;;2.25;2.08;;;;;;;;;;4981355;28;20146;-68
2022/06/28 14:30:59;;;;;;;2.70;2.50;;;;;;;;;;4980624;28;20169;-71
2022/06/28 14:33:25;;;;;;;6.10;2.60;;;;;;;;;;4980838;28;20064;-69
2022/06/28 14:35:52;;;;;;;3.90;2.55;;;;;;;;;;4983721;28;20169;-70
2022/06/28 14:38:24;;;;;;;9.82;2.95;;;;;;;;;;4984379;28;20030;-68
2022/06/28 14:40:50;;;;;;;5.50;3.10;;;;;;;;;;4983189;28;20092;-70
2022/06/28 14:43:17;;;;;;;4.03;3.15;;;;;;;;;;4983021;28;20053;-68
2022/06/28 14:45:43;;;;;;;3.67;3.30;;;;;;;;;;4984711;28;20044;-68
2022/06/28 14:48:09;;;;;;;7.90;3.38;;;;;;;;;;4982975;28;20117;-68
2022/06/28 14:50:38;;;;;;;5.78;3.47;;;;;;;;;;4984871;28;20407;-71
2022/06/28 14:53:09;;;;;;;7.88;3.60;;;;;;;;;;4982637;28;20030;-71
2022/06/28 14:55:35;;;;;;;3.83;3.40;;;;;;;;;;4983667;28;20037;-71
2022/06/28 14:58:01;;;;;;;3.65;3.28;;;;;;;;;;4983739;28;20053;-71
2022/06/28 15:00:27;;;;;;;3.65;3.35;;;;;;;;;;4983009;28;20034;-71
2022/06/28 15:02:52;;;;;;;3.85;3.13;;;;;;;;;;4983033;28;20478;-71
2022/06/28 15:05:18;;;;;;;8.30;3.95;;;;;;;;;;4983150;28;20598;-71
2022/06/28 15:07:43;;;;;;;12.63;4.53;;;;;;;;;;4983765;28;20101;-71